Time;durP1;ratioP1;P1;durP2;ratioP2;P2;SDS_P1;SDS_P2;PMS_P1;PMS_P2;Temp;Humidity;BMP_temperature;BMP_pressure;BME280_temperature;BME280_humidity;BME280_pressure;Samples;Min_cycle;Max_cycle;Signal;HPM_P1;HPM_P2
2023/08/13 00:02:00;;;;;;;11.25;10.05;;;;;;;;;;5131260;27;20497;-75
2023/08/13 00:04:26;;;;;;;14.27;9.77;;;;;;;;;;5131163;27;20035;-73
2023/08/13 00:06:52;;;;;;;12.13;10.57;;;;;;;;;;5131422;27;20447;-74
2023/08/13 00:09:19;;;;;;;12.13;9.95;;;;;;;;;;5131339;27;20050;-72
2023/08/13 00:11:45;;;;;;;10.73;9.57;;;;;;;;;;5131184;27;20080;-74
2023/08/13 00:14:11;;;;;;;10.10;9.10;;;;;;;;;;5131117;27;20061;-73
2023/08/13 00:16:37;;;;;;;11.20;10.20;;;;;;;;;;5130599;27;20031;-73
2023/08/13 00:19:04;;;;;;;14.18;9.95;;;;;;;;;;5112799;28;20074;-72
2023/08/13 00:21:31;;;;;;;11.30;10.27;;;;;;;;;;5130784;27;20383;-73
2023/08/13 00:23:56;;;;;;;17.00;10.85;;;;;;;;;;5131230;27;20031;-74
2023/08/13 00:26:22;;;;;;;13.32;9.93;;;;;;;;;;5130799;27;20405;-74
2023/08/13 00:28:48;;;;;;;10.27;9.48;;;;;;;;;;5131053;27;20039;-74
2023/08/13 00:31:15;;;;;;;10.45;9.52;;;;;;;;;;5131056;27;20039;-74
2023/08/13 00:33:42;;;;;;;12.15;9.40;;;;;;;;;;5112566;27;20564;-74
2023/08/13 00:36:08;;;;;;;10.20;9.20;;;;;;;;;;5112653;27;20055;-74
2023/08/13 00:38:34;;;;;;;12.15;10.95;;;;;;;;;;5130872;27;20711;-73
2023/08/13 00:41:00;;;;;;;10.32;9.40;;;;;;;;;;5112504;28;20485;-74
2023/08/13 00:43:26;;;;;;;10.70;9.80;;;;;;;;;;5130834;27;20092;-75
2023/08/13 00:45:52;;;;;;;10.52;9.73;;;;;;;;;;5130858;27;20035;-72
2023/08/13 00:48:18;;;;;;;11.45;10.30;;;;;;;;;;5095444;27;20031;-74
2023/08/13 00:50:44;;;;;;;11.20;10.27;;;;;;;;;;5095279;28;20128;-74
2023/08/13 00:53:10;;;;;;;14.15;10.68;;;;;;;;;;5132212;27;20031;-72
2023/08/13 00:55:37;;;;;;;11.25;10.15;;;;;;;;;;5095376;28;20545;-74
2023/08/13 00:58:03;;;;;;;12.23;9.95;;;;;;;;;;5130815;27;20100;-74
2023/08/13 01:00:30;;;;;;;12.30;10.90;;;;;;;;;;5130656;27;20059;-73
2023/08/13 01:02:56;;;;;;;11.40;10.30;;;;;;;;;;5095458;28;20077;-74
2023/08/13 01:05:23;;;;;;;14.73;10.88;;;;;;;;;;5095718;28;20035;-73
2023/08/13 01:07:51;;;;;;;11.52;10.48;;;;;;;;;;5112349;28;20031;-74
2023/08/13 01:10:20;;;;;;;11.77;10.73;;;;;;;;;;5130647;27;20458;-72
2023/08/13 01:12:48;;;;;;;13.20;11.18;;;;;;;;;;5130053;27;20413;-74
2023/08/13 01:15:15;;;;;;;12.50;11.18;;;;;;;;;;5130684;27;20091;-72
2023/08/13 01:17:40;;;;;;;13.98;11.15;;;;;;;;;;5112059;27;20114;-73
2023/08/13 01:20:07;;;;;;;11.93;10.27;;;;;;;;;;5112412;28;20035;-73
2023/08/13 01:22:37;;;;;;;12.95;9.63;;;;;;;;;;5112296;28;20031;-74
2023/08/13 01:25:03;;;;;;;;;;;;;;;;;;5113107;27;20039;-74
2023/08/13 01:27:58;;;;;;;19.55;10.38;;;;;;;;;;5130565;27;19911;-74
2023/08/13 01:30:40;;;;;;;10.57;9.20;;;;;;;;;;5112273;27;20421;-73
2023/08/13 01:33:07;;;;;;;10.90;9.85;;;;;;;;;;5134358;27;20558;-74
2023/08/13 01:35:33;;;;;;;12.68;10.27;;;;;;;;;;5134281;27;20031;-74
2023/08/13 01:37:59;;;;;;;10.27;9.35;;;;;;;;;;5134893;27;20489;-74
2023/08/13 01:40:25;;;;;;;14.45;10.23;;;;;;;;;;5116434;27;20189;-72
2023/08/13 01:42:51;;;;;;;12.88;10.50;;;;;;;;;;5139228;27;20046;-73
2023/08/13 01:45:17;;;;;;;11.73;9.98;;;;;;;;;;5121359;27;20034;-74
2023/08/13 01:47:43;;;;;;;13.65;10.30;;;;;;;;;;5117971;27;20087;-74
2023/08/13 01:50:09;;;;;;;12.88;10.70;;;;;;;;;;5098979;27;20130;-74
2023/08/13 01:52:35;;;;;;;11.20;10.30;;;;;;;;;;5115444;27;20042;-73
2023/08/13 01:55:02;;;;;;;15.25;10.10;;;;;;;;;;5133736;27;20061;-74
2023/08/13 01:57:29;;;;;;;19.77;10.65;;;;;;;;;;5133632;27;20109;-73
2023/08/13 01:59:55;;;;;;;12.07;10.82;;;;;;;;;;5081344;27;20130;-73
2023/08/13 02:02:22;;;;;;;13.45;10.48;;;;;;;;;;5115295;27;20035;-72
2023/08/13 02:04:48;;;;;;;12.07;11.07;;;;;;;;;;5115002;27;20055;-73
2023/08/13 02:07:13;;;;;;;13.05;10.85;;;;;;;;;;5115159;27;20066;-72
2023/08/13 02:09:39;;;;;;;14.27;10.98;;;;;;;;;;5114982;27;20043;-73
2023/08/13 02:12:06;;;;;;;15.45;10.98;;;;;;;;;;5133374;27;20030;-74
2023/08/13 02:14:32;;;;;;;12.80;11.52;;;;;;;;;;5133112;27;20650;-74
2023/08/13 02:16:59;;;;;;;13.15;11.38;;;;;;;;;;5115010;27;20031;-73
2023/08/13 02:19:45;;;;;;;14.05;11.63;;;;;;;;;;5117738;27;20050;-74
2023/08/13 02:22:11;;;;;;;12.80;11.48;;;;;;;;;;5133184;27;20032;-74
2023/08/13 02:24:37;;;;;;;12.93;11.50;;;;;;;;;;5114656;27;20524;-72
2023/08/13 02:27:04;;;;;;;11.18;10.13;;;;;;;;;;5114721;27;20027;-73
2023/08/13 02:29:31;;;;;;;13.18;11.00;;;;;;;;;;5114922;27;20043;-73
2023/08/13 02:31:57;;;;;;;12.40;10.95;;;;;;;;;;5132963;27;20061;-74
2023/08/13 02:34:23;;;;;;;11.27;9.98;;;;;;;;;;5133178;27;20386;-74
2023/08/13 02:36:49;;;;;;;15.90;11.00;;;;;;;;;;5132723;27;20473;-73
2023/08/13 02:39:15;;;;;;;16.42;12.20;;;;;;;;;;5097386;27;20446;-74
2023/08/13 02:41:41;;;;;;;11.50;10.45;;;;;;;;;;5132580;27;20035;-74
2023/08/13 02:44:09;;;;;;;12.27;10.60;;;;;;;;;;5132873;27;20031;-74
2023/08/13 02:46:35;;;;;;;11.23;9.75;;;;;;;;;;5132410;27;20035;-74
2023/08/13 02:49:01;;;;;;;10.35;9.45;;;;;;;;;;5114257;27;20072;-74
2023/08/13 02:51:27;;;;;;;12.98;10.60;;;;;;;;;;5132728;27;20421;-73
2023/08/13 02:53:53;;;;;;;15.77;11.38;;;;;;;;;;5132515;27;20062;-75
2023/08/13 02:56:19;;;;;;;13.10;10.48;;;;;;;;;;5132518;27;20416;-73
2023/08/13 02:58:45;;;;;;;12.50;11.20;;;;;;;;;;5132405;27;20118;-74
2023/08/13 03:01:12;;;;;;;10.93;10.00;;;;;;;;;;5097416;27;20039;-73
2023/08/13 03:03:38;;;;;;;14.73;10.45;;;;;;;;;;5113890;27;20517;-73
2023/08/13 03:06:04;;;;;;;14.95;9.85;;;;;;;;;;5113966;27;20043;-73
2023/08/13 03:08:29;;;;;;;12.07;10.60;;;;;;;;;;5132498;27;20091;-75
2023/08/13 03:10:56;;;;;;;14.77;10.18;;;;;;;;;;5114117;27;20050;-73
2023/08/13 03:13:22;;;;;;;11.32;10.05;;;;;;;;;;5113796;27;20051;-75
2023/08/13 03:15:48;;;;;;;15.63;9.93;;;;;;;;;;5113819;27;20039;-72
2023/08/13 03:18:14;;;;;;;11.13;10.23;;;;;;;;;;5132072;27;20031;-75
2023/08/13 03:20:46;;;;;;;13.65;11.13;;;;;;;;;;5113673;27;20515;-74
2023/08/13 03:23:11;;;;;;;13.25;11.27;;;;;;;;;;5113741;27;20074;-74
2023/08/13 03:25:40;;;;;;;18.88;14.20;;;;;;;;;;5113704;27;20030;-73
2023/08/13 03:28:07;;;;;;;14.02;12.10;;;;;;;;;;5113764;27;20026;-74
2023/08/13 03:30:34;;;;;;;13.23;11.52;;;;;;;;;;5113414;27;20043;-75
2023/08/13 03:33:00;;;;;;;14.50;11.10;;;;;;;;;;5113399;27;20126;-74
2023/08/13 03:35:27;;;;;;;11.85;10.75;;;;;;;;;;5113735;27;20030;-75
2023/08/13 03:37:53;;;;;;;12.63;11.45;;;;;;;;;;5113306;27;20042;-74
2023/08/13 03:40:20;;;;;;;11.10;9.98;;;;;;;;;;5113756;27;20042;-73
2023/08/13 03:42:46;;;;;;;11.18;10.05;;;;;;;;;;5131760;27;20027;-73
2023/08/13 03:45:13;;;;;;;15.88;9.77;;;;;;;;;;5132056;27;20119;-74
2023/08/13 03:47:39;;;;;;;13.98;9.35;;;;;;;;;;5131500;27;20490;-73
2023/08/13 03:50:05;;;;;;;12.60;9.23;;;;;;;;;;5113141;27;20528;-74
2023/08/13 03:52:32;;;;;;;12.32;10.43;;;;;;;;;;5112827;27;20027;-74
2023/08/13 03:54:58;;;;;;;8.73;7.82;;;;;;;;;;5131234;27;20513;-73
2023/08/13 03:57:24;;;;;;;11.00;10.00;;;;;;;;;;5112993;27;20027;-74
2023/08/13 03:59:51;;;;;;;9.80;8.18;;;;;;;;;;5131155;27;20497;-74
2023/08/13 04:02:17;;;;;;;16.33;10.43;;;;;;;;;;5113086;27;20065;-74
2023/08/13 04:04:45;;;;;;;12.38;10.90;;;;;;;;;;5112981;27;20039;-74
2023/08/13 04:07:11;;;;;;;11.73;10.63;;;;;;;;;;5113012;27;20031;-74
2023/08/13 04:09:37;;;;;;;11.45;10.45;;;;;;;;;;5112777;27;20050;-74
2023/08/13 04:12:05;;;;;;;15.85;10.30;;;;;;;;;;5112749;27;20039;-73
2023/08/13 04:14:31;;;;;;;17.63;10.07;;;;;;;;;;5112888;27;20063;-74
2023/08/13 04:16:57;;;;;;;10.80;9.90;;;;;;;;;;5130878;27;20055;-73
2023/08/13 04:19:23;;;;;;;12.13;10.13;;;;;;;;;;5131417;27;20062;-73
2023/08/13 04:21:49;;;;;;;15.10;9.70;;;;;;;;;;5130923;27;20498;-75
2023/08/13 04:24:16;;;;;;;11.07;10.07;;;;;;;;;;5112712;27;20027;-73
2023/08/13 04:26:41;;;;;;;9.95;8.65;;;;;;;;;;5112759;28;20035;-74
2023/08/13 04:29:09;;;;;;;12.60;9.23;;;;;;;;;;5112926;27;20039;-75
2023/08/13 04:31:36;;;;;;;9.70;8.40;;;;;;;;;;5095990;28;20035;-75
2023/08/13 04:34:03;;;;;;;13.10;8.85;;;;;;;;;;5131620;27;20087;-75
2023/08/13 04:36:29;;;;;;;9.88;8.73;;;;;;;;;;5113264;27;20031;-74
2023/08/13 04:38:55;;;;;;;13.20;8.93;;;;;;;;;;5135619;27;20037;-74
2023/08/13 04:41:21;;;;;;;8.63;7.72;;;;;;;;;;5118765;27;20039;-74
2023/08/13 04:43:49;;;;;;;13.32;8.82;;;;;;;;;;5114452;28;20034;-75
2023/08/13 04:46:14;;;;;;;20.35;16.85;;;;;;;;;;5114454;28;20042;-75
2023/08/13 04:48:47;;;;;;;11.18;9.50;;;;;;;;;;5115690;28;20027;-76
2023/08/13 04:51:15;;;;;;;5.70;5.20;;;;;;;;;;5127375;28;20035;-75
2023/08/13 04:53:42;;;;;;;9.88;8.52;;;;;;;;;;5108220;28;20054;-74
2023/08/13 04:56:09;;;;;;;17.38;8.00;;;;;;;;;;5097282;28;20065;-75
2023/08/13 04:58:35;;;;;;;15.00;7.93;;;;;;;;;;5112603;27;20042;-75
2023/08/13 05:01:02;;;;;;;8.60;7.63;;;;;;;;;;5112818;27;20546;-75
2023/08/13 05:03:30;;;;;;;7.70;7.10;;;;;;;;;;5113673;27;20204;-75
2023/08/13 05:05:56;;;;;;;8.32;7.28;;;;;;;;;;5116272;27;20077;-74
2023/08/13 05:08:23;;;;;;;10.02;7.38;;;;;;;;;;5116355;27;20096;-75
2023/08/13 05:10:50;;;;;;;6.05;5.55;;;;;;;;;;5134425;27;20398;-74
2023/08/13 05:13:17;;;;;;;10.68;8.52;;;;;;;;;;5099122;27;20051;-73
2023/08/13 05:15:43;;;;;;;7.40;6.80;;;;;;;;;;5116019;27;20061;-75
2023/08/13 05:18:11;;;;;;;12.30;7.78;;;;;;;;;;5115886;27;20138;-74
2023/08/13 05:20:37;;;;;;;11.18;7.75;;;;;;;;;;5134329;27;20117;-74
2023/08/13 05:23:03;;;;;;;10.80;7.35;;;;;;;;;;5115593;27;20038;-74
2023/08/13 05:25:29;;;;;;;8.25;6.95;;;;;;;;;;5116129;27;20182;-74
2023/08/13 05:27:56;;;;;;;16.10;7.85;;;;;;;;;;5098851;27;20039;-73
2023/08/13 05:30:22;;;;;;;11.02;6.93;;;;;;;;;;5115909;27;20050;-73
2023/08/13 05:32:48;;;;;;;10.10;7.40;;;;;;;;;;5098824;27;20024;-73
2023/08/13 05:35:14;;;;;;;7.68;7.15;;;;;;;;;;5134290;27;20035;-74
2023/08/13 05:37:40;;;;;;;8.85;8.05;;;;;;;;;;5115480;27;20069;-75
2023/08/13 05:40:08;;;;;;;11.52;8.65;;;;;;;;;;5115615;27;20039;-75
2023/08/13 05:42:36;;;;;;;11.63;8.00;;;;;;;;;;5099476;27;20535;-74
2023/08/13 05:45:03;;;;;;;7.97;7.28;;;;;;;;;;5133871;27;20047;-74
2023/08/13 05:47:32;;;;;;;12.27;8.35;;;;;;;;;;5116011;27;20035;-74
2023/08/13 05:49:58;;;;;;;8.30;7.60;;;;;;;;;;5115284;27;20126;-74
2023/08/13 05:52:24;;;;;;;9.00;6.45;;;;;;;;;;5115572;27;20114;-73
2023/08/13 05:54:50;;;;;;;5.53;5.03;;;;;;;;;;5133591;27;20501;-73
2023/08/13 05:57:17;;;;;;;10.07;8.30;;;;;;;;;;5134009;27;20027;-72
2023/08/13 05:59:43;;;;;;;7.38;6.65;;;;;;;;;;5133783;27;20043;-74
2023/08/13 06:02:09;;;;;;;9.85;7.88;;;;;;;;;;5099144;27;20027;-73
2023/08/13 06:04:35;;;;;;;7.90;6.60;;;;;;;;;;5134504;27;20528;-72
2023/08/13 06:07:01;;;;;;;5.97;5.43;;;;;;;;;;5098736;27;21060;-74
2023/08/13 06:09:28;;;;;;;6.28;5.70;;;;;;;;;;5134317;27;20043;-75
2023/08/13 06:11:54;;;;;;;6.43;5.82;;;;;;;;;;5133901;27;20130;-74
2023/08/13 06:14:21;;;;;;;9.05;6.00;;;;;;;;;;5097727;27;20498;-75
2023/08/13 06:16:47;;;;;;;6.00;5.40;;;;;;;;;;5133549;27;20516;-74
2023/08/13 06:19:13;;;;;;;7.25;6.57;;;;;;;;;;5115411;27;20035;-75
2023/08/13 06:21:39;;;;;;;5.65;5.18;;;;;;;;;;5134715;27;20062;-75
2023/08/13 06:24:05;;;;;;;5.85;5.25;;;;;;;;;;5134680;27;20506;-75
2023/08/13 06:26:32;;;;;;;5.20;4.55;;;;;;;;;;5134643;27;20062;-75
2023/08/13 06:28:58;;;;;;;4.47;4.10;;;;;;;;;;5136355;27;20038;-73
2023/08/13 06:31:24;;;;;;;5.32;4.50;;;;;;;;;;5115406;27;20107;-74
2023/08/13 06:33:50;;;;;;;3.97;3.65;;;;;;;;;;5133146;27;20540;-73
2023/08/13 06:36:16;;;;;;;3.97;3.55;;;;;;;;;;5133480;27;20212;-72
2023/08/13 06:38:41;;;;;;;4.63;4.20;;;;;;;;;;5133004;27;20031;-75
2023/08/13 06:41:07;;;;;;;3.75;3.55;;;;;;;;;;5132875;27;20331;-74
2023/08/13 06:43:34;;;;;;;3.38;3.17;;;;;;;;;;5114832;27;20039;-73
2023/08/13 06:46:00;;;;;;;5.70;3.97;;;;;;;;;;5114199;27;20034;-75
2023/08/13 06:48:26;;;;;;;3.95;3.38;;;;;;;;;;5132992;27;20092;-73
2023/08/13 06:50:53;;;;;;;6.25;4.20;;;;;;;;;;5132789;27;20076;-74
2023/08/13 06:53:19;;;;;;;4.28;3.88;;;;;;;;;;5132798;27;20064;-74
2023/08/13 06:55:45;;;;;;;5.38;4.10;;;;;;;;;;5132557;27;20031;-75
2023/08/13 06:58:11;;;;;;;4.65;4.00;;;;;;;;;;5132638;27;20114;-74
2023/08/13 07:00:38;;;;;;;4.90;3.90;;;;;;;;;;5114571;27;20035;-75
2023/08/13 07:03:04;;;;;;;6.25;4.03;;;;;;;;;;5132267;27;20031;-73
2023/08/13 07:05:30;;;;;;;3.97;3.65;;;;;;;;;;5132526;27;20091;-74
2023/08/13 07:07:55;;;;;;;4.38;4.07;;;;;;;;;;5132273;27;20118;-73
2023/08/13 07:10:22;;;;;;;3.92;3.70;;;;;;;;;;5132586;27;20137;-74
2023/08/13 07:12:48;;;;;;;3.53;3.33;;;;;;;;;;5113824;27;20043;-75
2023/08/13 07:15:14;;;;;;;3.40;3.10;;;;;;;;;;5132333;27;20171;-74
2023/08/13 07:17:40;;;;;;;4.05;3.28;;;;;;;;;;5132265;27;20058;-75
2023/08/13 07:20:09;;;;;;;6.93;3.88;;;;;;;;;;5132015;27;20039;-75
2023/08/13 07:22:37;;;;;;;3.35;3.15;;;;;;;;;;5132564;27;20035;-74
2023/08/13 07:25:05;;;;;;;4.22;3.20;;;;;;;;;;5132527;27;20043;-75
2023/08/13 07:27:32;;;;;;;5.90;3.45;;;;;;;;;;5132897;27;20039;-74
2023/08/13 07:29:58;;;;;;;5.72;3.40;;;;;;;;;;5132798;27;20110;-75
2023/08/13 07:32:24;;;;;;;4.07;3.38;;;;;;;;;;5135723;27;20054;-74
2023/08/13 07:34:50;;;;;;;4.18;3.70;;;;;;;;;;5119419;27;20070;-75
2023/08/13 07:37:16;;;;;;;3.85;3.55;;;;;;;;;;5133140;27;20597;-73
2023/08/13 07:39:42;;;;;;;4.15;3.75;;;;;;;;;;5133355;27;20121;-74
2023/08/13 07:42:08;;;;;;;3.85;3.47;;;;;;;;;;5133046;27;20043;-76
2023/08/13 07:44:35;;;;;;;6.47;3.33;;;;;;;;;;5132763;27;20042;-75
2023/08/13 07:47:01;;;;;;;4.07;3.25;;;;;;;;;;5131911;27;20031;-74
2023/08/13 07:49:28;;;;;;;5.10;3.28;;;;;;;;;;5132118;27;20184;-75
2023/08/13 07:51:54;;;;;;;3.35;2.65;;;;;;;;;;5132352;27;20019;-74
2023/08/13 07:54:20;;;;;;;4.65;3.20;;;;;;;;;;5132605;27;20049;-75
2023/08/13 07:56:46;;;;;;;3.13;2.83;;;;;;;;;;5115621;27;20027;-75
2023/08/13 07:59:12;;;;;;;4.30;3.85;;;;;;;;;;5139260;27;20113;-73
2023/08/13 08:01:38;;;;;;;3.95;3.65;;;;;;;;;;5120335;27;20027;-75
2023/08/13 08:04:04;;;;;;;4.20;3.90;;;;;;;;;;5131617;27;20092;-75
2023/08/13 08:06:30;;;;;;;6.22;4.05;;;;;;;;;;5131390;27;20532;-75
2023/08/13 08:08:56;;;;;;;4.82;4.32;;;;;;;;;;5130858;27;20039;-73
2023/08/13 08:11:22;;;;;;;5.10;4.55;;;;;;;;;;5131204;27;20035;-74
2023/08/13 08:13:48;;;;;;;4.57;4.18;;;;;;;;;;5130956;27;20051;-75
2023/08/13 08:16:15;;;;;;;6.40;4.18;;;;;;;;;;5131346;27;20035;-75
2023/08/13 08:18:41;;;;;;;4.80;4.45;;;;;;;;;;5131520;27;20027;-75
2023/08/13 08:21:07;;;;;;;12.05;6.50;;;;;;;;;;5131103;27;20446;-74
2023/08/13 08:23:33;;;;;;;4.90;4.50;;;;;;;;;;5131293;27;20514;-74
2023/08/13 08:25:59;;;;;;;9.25;6.50;;;;;;;;;;5130946;27;20039;-74
2023/08/13 08:28:26;;;;;;;6.47;5.90;;;;;;;;;;5130971;27;20557;-74
2023/08/13 08:30:52;;;;;;;6.88;5.70;;;;;;;;;;5130746;27;20047;-74
2023/08/13 08:33:21;;;;;;;9.40;3.47;;;;;;;;;;5130958;27;20031;-74
2023/08/13 08:35:47;;;;;;;4.05;3.70;;;;;;;;;;5113260;28;20516;-73
2023/08/13 08:38:13;;;;;;;3.85;3.55;;;;;;;;;;5133022;27;20039;-74
2023/08/13 08:40:42;;;;;;;4.22;3.80;;;;;;;;;;5135082;27;20031;-75
2023/08/13 08:43:09;;;;;;;4.00;3.70;;;;;;;;;;5134771;27;20035;-74
2023/08/13 08:45:36;;;;;;;4.63;4.22;;;;;;;;;;5135322;27;20505;-74
2023/08/13 08:48:02;;;;;;;5.97;3.20;;;;;;;;;;5099387;27;20142;-74
2023/08/13 08:50:28;;;;;;;4.68;4.38;;;;;;;;;;5116881;27;20054;-74
2023/08/13 08:52:54;;;;;;;4.47;4.05;;;;;;;;;;5134720;27;20444;-74
2023/08/13 08:55:20;;;;;;;5.20;4.80;;;;;;;;;;5135090;27;20042;-74
2023/08/13 08:57:47;;;;;;;6.03;4.80;;;;;;;;;;5099737;27;20031;-73
2023/08/13 09:00:14;;;;;;;5.07;4.60;;;;;;;;;;5134680;27;20052;-74
2023/08/13 09:02:41;;;;;;;4.30;4.00;;;;;;;;;;5134848;27;20064;-74
2023/08/13 09:05:07;;;;;;;3.40;3.10;;;;;;;;;;5116556;27;20057;-74
2023/08/13 09:07:33;;;;;;;3.47;3.17;;;;;;;;;;5134873;27;20065;-75
2023/08/13 09:10:03;;;;;;;2.90;2.70;;;;;;;;;;5134338;27;20070;-74
2023/08/13 09:12:36;;;;;;;2.97;2.80;;;;;;;;;;5134430;27;20035;-74
2023/08/13 09:15:06;;;;;;;3.05;2.85;;;;;;;;;;5134691;27;20039;-74
2023/08/13 09:17:32;;;;;;;4.03;2.80;;;;;;;;;;5134842;27;20047;-75
2023/08/13 09:19:59;;;;;;;3.40;3.20;;;;;;;;;;5134622;27;20455;-73
2023/08/13 09:22:26;;;;;;;3.45;3.25;;;;;;;;;;5134900;27;20051;-74
2023/08/13 09:24:53;;;;;;;3.95;2.85;;;;;;;;;;5134748;27;20035;-74
2023/08/13 09:27:19;;;;;;;4.43;3.03;;;;;;;;;;5134750;27;20039;-74
2023/08/13 09:29:46;;;;;;;3.28;3.08;;;;;;;;;;5116485;27;20107;-75
2023/08/13 09:32:11;;;;;;;3.83;3.05;;;;;;;;;;5115947;27;20517;-73
2023/08/13 09:34:38;;;;;;;3.70;2.88;;;;;;;;;;5115856;27;20030;-74
2023/08/13 09:37:04;;;;;;;2.40;2.17;;;;;;;;;;5134225;27;20051;-75
2023/08/13 09:39:33;;;;;;;1.92;1.85;;;;;;;;;;5134613;27;20122;-74
2023/08/13 09:42:00;;;;;;;2.10;2.00;;;;;;;;;;5133853;27;20027;-75
2023/08/13 09:44:27;;;;;;;2.92;2.47;;;;;;;;;;5133858;27;20042;-75
2023/08/13 09:46:54;;;;;;;2.00;1.83;;;;;;;;;;5134148;27;20606;-73
2023/08/13 09:49:23;;;;;;;2.53;2.30;;;;;;;;;;5132812;27;20054;-74
2023/08/13 09:51:49;;;;;;;2.50;2.40;;;;;;;;;;5134069;27;20031;-74
2023/08/13 09:54:28;;;;;;;2.08;1.98;;;;;;;;;;5133552;27;20586;-75
2023/08/13 09:56:57;;;;;;;2.05;1.95;;;;;;;;;;5134039;27;20027;-73
2023/08/13 09:59:23;;;;;;;2.50;2.40;;;;;;;;;;5115376;27;20059;-75
2023/08/13 10:01:49;;;;;;;4.65;2.40;;;;;;;;;;5098461;27;20457;-75
2023/08/13 10:04:15;;;;;;;2.50;2.40;;;;;;;;;;5115016;27;20049;-74
2023/08/13 10:06:41;;;;;;;2.97;2.30;;;;;;;;;;5133771;27;20043;-74
2023/08/13 10:09:07;;;;;;;2.92;1.90;;;;;;;;;;5114895;27;20420;-75
2023/08/13 10:11:33;;;;;;;2.40;2.20;;;;;;;;;;5115426;27;20141;-74
2023/08/13 10:13:59;;;;;;;2.30;2.13;;;;;;;;;;5114653;27;20591;-74
2023/08/13 10:16:27;;;;;;;4.47;2.55;;;;;;;;;;5115193;27;20042;-75
2023/08/13 10:18:56;;;;;;;2.80;2.60;;;;;;;;;;5133402;27;20038;-74
2023/08/13 10:21:35;;;;;;;2.65;2.40;;;;;;;;;;5133490;27;20347;-74
2023/08/13 10:24:02;;;;;;;6.43;2.25;;;;;;;;;;5133166;27;20480;-74
2023/08/13 10:26:28;;;;;;;4.15;2.08;;;;;;;;;;5137352;27;20502;-74
2023/08/13 10:28:54;;;;;;;2.10;2.00;;;;;;;;;;5136042;27;20537;-75
2023/08/13 10:31:25;;;;;;;2.03;1.67;;;;;;;;;;5114362;27;20405;-73
2023/08/13 10:34:07;;;;;;;1.38;1.38;;;;;;;;;;5133026;27;20027;-75
2023/08/13 10:36:49;;;;;;;2.50;2.08;;;;;;;;;;5133342;27;20049;-73
2023/08/13 10:39:33;;;;;;;2.00;1.90;;;;;;;;;;5114504;27;20027;-74
2023/08/13 10:42:01;;;;;;;4.93;2.30;;;;;;;;;;5132854;27;20046;-73
2023/08/13 10:44:31;;;;;;;2.30;2.20;;;;;;;;;;5132766;27;20027;-74
2023/08/13 10:46:57;;;;;;;5.15;4.75;;;;;;;;;;5133222;27;20027;-74
2023/08/13 10:49:24;;;;;;;2.15;2.00;;;;;;;;;;5114020;27;20175;-74
2023/08/13 10:51:50;;;;;;;2.22;2.05;;;;;;;;;;5132954;27;20031;-74
2023/08/13 10:54:19;;;;;;;2.45;2.30;;;;;;;;;;5132412;27;20057;-74
2023/08/13 10:56:56;;;;;;;2.92;1.90;;;;;;;;;;5114641;27;20035;-74
2023/08/13 10:59:27;;;;;;;2.55;2.35;;;;;;;;;;5132651;27;20085;-74
2023/08/13 11:02:09;;;;;;;2.60;2.38;;;;;;;;;;5132928;27;20035;-74
2023/08/13 11:04:35;;;;;;;2.63;2.53;;;;;;;;;;5133569;27;20155;-74
2023/08/13 11:07:01;;;;;;;2.72;2.55;;;;;;;;;;5134592;27;20031;-74
2023/08/13 11:09:28;;;;;;;2.38;2.28;;;;;;;;;;5139655;27;20051;-74
2023/08/13 11:11:55;;;;;;;2.13;2.03;;;;;;;;;;5137613;27;20119;-74
2023/08/13 11:14:21;;;;;;;2.45;2.35;;;;;;;;;;5132744;27;20047;-73
2023/08/13 11:16:47;;;;;;;2.50;2.30;;;;;;;;;;5132302;27;20038;-74
2023/08/13 11:19:13;;;;;;;1.90;1.80;;;;;;;;;;5132085;27;20050;-75
2023/08/13 11:21:39;;;;;;;2.75;2.55;;;;;;;;;;5132664;27;20031;-74
2023/08/13 11:24:08;;;;;;;4.22;2.47;;;;;;;;;;5132389;27;20395;-75
2023/08/13 11:26:35;;;;;;;2.45;2.25;;;;;;;;;;5114703;27;20031;-75
2023/08/13 11:29:01;;;;;;;2.47;2.28;;;;;;;;;;5132306;27;20035;-74
2023/08/13 11:31:27;;;;;;;2.60;2.50;;;;;;;;;;5131920;27;20046;-75
2023/08/13 11:33:53;;;;;;;2.75;2.65;;;;;;;;;;5131960;27;20035;-75
2023/08/13 11:36:20;;;;;;;3.97;2.95;;;;;;;;;;5113464;27;20457;-74
2023/08/13 11:38:46;;;;;;;3.55;2.35;;;;;;;;;;5132288;27;20047;-75
2023/08/13 11:41:12;;;;;;;3.03;2.83;;;;;;;;;;5131860;27;20047;-74
2023/08/13 11:43:38;;;;;;;4.43;4.03;;;;;;;;;;5133618;27;20042;-74
2023/08/13 11:46:05;;;;;;;3.40;3.00;;;;;;;;;;5131778;27;20497;-75
2023/08/13 11:48:32;;;;;;;2.90;2.50;;;;;;;;;;5131615;27;20037;-75
2023/08/13 11:51:10;;;;;;;2.72;2.63;;;;;;;;;;5131418;27;20412;-74
2023/08/13 11:53:42;;;;;;;2.80;2.50;;;;;;;;;;5131640;27;20039;-75
2023/08/13 11:56:10;;;;;;;4.43;2.22;;;;;;;;;;5131275;27;20035;-75
2023/08/13 11:58:36;;;;;;;3.80;2.75;;;;;;;;;;5113406;27;20039;-75
2023/08/13 12:01:02;;;;;;;2.83;2.55;;;;;;;;;;5113124;27;20035;-74
2023/08/13 12:03:38;;;;;;;2.60;2.40;;;;;;;;;;5131315;27;20065;-76
2023/08/13 12:06:07;;;;;;;2.45;2.35;;;;;;;;;;5131228;27;20070;-76
2023/08/13 12:08:33;;;;;;;3.40;3.20;;;;;;;;;;5131262;27;20038;-75
2023/08/13 12:10:59;;;;;;;2.92;2.55;;;;;;;;;;5131317;27;20035;-74
2023/08/13 12:13:25;;;;;;;3.42;3.20;;;;;;;;;;5130268;27;20062;-75
2023/08/13 12:15:51;;;;;;;2.45;2.35;;;;;;;;;;5131222;27;20042;-75
2023/08/13 12:18:18;;;;;;;2.30;2.20;;;;;;;;;;5112494;27;20027;-75
2023/08/13 12:20:44;;;;;;;3.35;3.05;;;;;;;;;;5113025;27;20476;-74
2023/08/13 12:23:10;;;;;;;3.13;2.92;;;;;;;;;;5130817;27;20035;-76
2023/08/13 12:25:36;;;;;;;3.45;3.25;;;;;;;;;;5131326;27;20038;-75
2023/08/13 12:28:02;;;;;;;3.22;3.03;;;;;;;;;;5130828;27;20039;-75
2023/08/13 12:30:29;;;;;;;3.72;2.83;;;;;;;;;;5112232;27;20053;-74
2023/08/13 12:32:55;;;;;;;3.30;3.10;;;;;;;;;;5130963;27;20037;-75
2023/08/13 12:35:21;;;;;;;2.42;2.28;;;;;;;;;;5130708;27;20412;-74
2023/08/13 12:37:47;;;;;;;3.38;2.80;;;;;;;;;;5131346;27;20558;-74
2023/08/13 12:40:13;;;;;;;2.30;2.20;;;;;;;;;;5130532;27;20051;-73
2023/08/13 12:42:39;;;;;;;3.67;3.38;;;;;;;;;;5131015;27;20035;-75
2023/08/13 12:45:06;;;;;;;3.72;2.95;;;;;;;;;;5131044;27;20046;-75
2023/08/13 12:47:33;;;;;;;3.58;3.25;;;;;;;;;;5130917;27;20035;-76
2023/08/13 12:49:59;;;;;;;3.03;2.85;;;;;;;;;;5130781;27;20494;-74
2023/08/13 12:52:25;;;;;;;3.03;2.83;;;;;;;;;;5130701;27;20119;-74
2023/08/13 12:54:51;;;;;;;3.65;3.30;;;;;;;;;;5112287;27;20504;-75
2023/08/13 12:57:17;;;;;;;3.20;2.78;;;;;;;;;;5130668;27;20032;-75
2023/08/13 12:59:43;;;;;;;2.97;2.83;;;;;;;;;;5112582;27;20125;-73
2023/08/13 13:02:09;;;;;;;10.98;3.17;;;;;;;;;;5112260;28;20122;-74
2023/08/13 13:04:35;;;;;;;4.18;3.10;;;;;;;;;;5130805;27;20125;-74
2023/08/13 13:07:01;;;;;;;2.22;2.13;;;;;;;;;;5130723;27;20114;-74
2023/08/13 13:09:27;;;;;;;3.42;3.22;;;;;;;;;;5112113;27;21087;-76
2023/08/13 13:11:53;;;;;;;3.88;2.63;;;;;;;;;;5130975;27;20031;-74
2023/08/13 13:14:19;;;;;;;3.33;3.13;;;;;;;;;;5130158;27;20120;-74
2023/08/13 13:16:45;;;;;;;3.97;3.78;;;;;;;;;;5130787;27;20477;-75
2023/08/13 13:19:11;;;;;;;2.78;2.58;;;;;;;;;;5097324;27;20042;-74
2023/08/13 13:21:37;;;;;;;3.20;3.00;;;;;;;;;;5132767;27;20038;-75
2023/08/13 13:24:04;;;;;;;2.42;2.33;;;;;;;;;;5130739;27;20097;-73
2023/08/13 13:26:30;;;;;;;3.75;3.55;;;;;;;;;;5115953;27;20043;-74
2023/08/13 13:28:56;;;;;;;7.22;3.63;;;;;;;;;;5134488;27;20035;-75
2023/08/13 13:31:22;;;;;;;3.55;3.25;;;;;;;;;;5134141;27;20049;-74
2023/08/13 13:33:49;;;;;;;3.05;2.85;;;;;;;;;;5134305;27;20035;-74
2023/08/13 13:36:15;;;;;;;3.55;3.35;;;;;;;;;;5115951;27;20043;-75
2023/08/13 13:38:41;;;;;;;4.05;3.75;;;;;;;;;;5134325;27;20039;-74
2023/08/13 13:41:07;;;;;;;4.00;3.75;;;;;;;;;;5134200;27;20042;-74
2023/08/13 13:43:33;;;;;;;5.28;4.93;;;;;;;;;;5134110;27;20027;-75
2023/08/13 13:45:59;;;;;;;4.57;4.20;;;;;;;;;;5134191;27;20031;-74
2023/08/13 13:48:25;;;;;;;4.43;4.07;;;;;;;;;;5115361;27;20039;-75
2023/08/13 13:50:51;;;;;;;5.53;5.03;;;;;;;;;;5133908;27;20042;-74
2023/08/13 13:53:17;;;;;;;4.55;4.15;;;;;;;;;;5098207;27;20060;-74
2023/08/13 13:55:43;;;;;;;4.90;4.57;;;;;;;;;;5133798;27;20126;-74
2023/08/13 13:58:10;;;;;;;4.65;4.25;;;;;;;;;;5133963;27;20035;-74
2023/08/13 14:00:35;;;;;;;4.97;4.57;;;;;;;;;;5133901;27;20027;-74
2023/08/13 14:03:01;;;;;;;4.85;4.22;;;;;;;;;;5133934;27;20046;-74
2023/08/13 14:05:28;;;;;;;5.07;4.68;;;;;;;;;;5115684;27;20505;-74
2023/08/13 14:07:54;;;;;;;5.00;4.45;;;;;;;;;;5134618;27;20039;-75
2023/08/13 14:10:20;;;;;;;6.03;5.63;;;;;;;;;;5116078;27;20461;-74
2023/08/13 14:12:46;;;;;;;6.65;6.10;;;;;;;;;;5134862;27;20088;-74
2023/08/13 14:15:12;;;;;;;8.20;7.50;;;;;;;;;;5135279;27;20043;-75
2023/08/13 14:17:38;;;;;;;7.80;7.30;;;;;;;;;;5139455;27;20405;-75
2023/08/13 14:20:08;;;;;;;6.55;6.05;;;;;;;;;;5125448;27;20031;-75
2023/08/13 14:22:34;;;;;;;7.03;6.55;;;;;;;;;;5140827;27;20036;-74
2023/08/13 14:25:00;;;;;;;8.00;7.05;;;;;;;;;;5133362;27;20035;-73
2023/08/13 14:27:27;;;;;;;7.43;6.80;;;;;;;;;;5132950;27;20493;-74
2023/08/13 14:29:53;;;;;;;7.25;6.75;;;;;;;;;;5133375;27;20039;-74
2023/08/13 14:32:22;;;;;;;8.88;8.07;;;;;;;;;;5114627;27;20035;-75
2023/08/13 14:34:51;;;;;;;6.03;5.53;;;;;;;;;;5132693;27;20079;-75